sensor_id;sensor_type;location;lat;lon;timestamp;temperature;humidity
10911;DHT22;5508;49.150;11.030;2023-03-08T00:00:24;2.70;64.60
10911;DHT22;5508;49.150;11.030;2023-03-08T00:03:25;2.70;64.50
10911;DHT22;5508;49.150;11.030;2023-03-08T00:06:26;2.70;64.50
10911;DHT22;5508;49.150;11.030;2023-03-08T00:09:26;2.60;64.60
10911;DHT22;5508;49.150;11.030;2023-03-08T00:12:28;2.50;65.00
10911;DHT22;5508;49.150;11.030;2023-03-08T00:15:28;2.40;66.10
10911;DHT22;5508;49.150;11.030;2023-03-08T00:18:29;2.40;65.60
10911;DHT22;5508;49.150;11.030;2023-03-08T00:21:29;2.40;65.00
10911;DHT22;5508;49.150;11.030;2023-03-08T00:24:30;2.40;64.80
10911;DHT22;5508;49.150;11.030;2023-03-08T00:27:31;2.30;65.70
10911;DHT22;5508;49.150;11.030;2023-03-08T00:30:31;2.30;65.50
10911;DHT22;5508;49.150;11.030;2023-03-08T00:33:33;2.30;65.30
10911;DHT22;5508;49.150;11.030;2023-03-08T00:36:34;2.30;65.30
10911;DHT22;5508;49.150;11.030;2023-03-08T00:39:34;2.30;64.90
10911;DHT22;5508;49.150;11.030;2023-03-08T00:42:35;2.20;65.30
10911;DHT22;5508;49.150;11.030;2023-03-08T00:45:35;2.10;65.20
10911;DHT22;5508;49.150;11.030;2023-03-08T00:48:36;2.20;64.70
10911;DHT22;5508;49.150;11.030;2023-03-08T00:51:36;2.10;65.00
10911;DHT22;5508;49.150;11.030;2023-03-08T00:54:37;2.10;65.10
10911;DHT22;5508;49.150;11.030;2023-03-08T00:57:38;2.10;65.20
10911;DHT22;5508;49.150;11.030;2023-03-08T01:00:38;2.20;65.60
10911;DHT22;5508;49.150;11.030;2023-03-08T01:03:39;2.20;65.20
10911;DHT22;5508;49.150;11.030;2023-03-08T01:06:40;2.30;64.50
10911;DHT22;5508;49.150;11.030;2023-03-08T01:09:42;2.40;64.50
10911;DHT22;5508;49.150;11.030;2023-03-08T01:12:43;2.30;64.00
10911;DHT22;5508;49.150;11.030;2023-03-08T01:15:43;2.40;64.60
10911;DHT22;5508;49.150;11.030;2023-03-08T01:18:44;2.20;65.50
10911;DHT22;5508;49.150;11.030;2023-03-08T01:21:45;2.30;65.70
10911;DHT22;5508;49.150;11.030;2023-03-08T01:24:46;2.20;64.70
10911;DHT22;5508;49.150;11.030;2023-03-08T01:27:47;2.30;64.90
10911;DHT22;5508;49.150;11.030;2023-03-08T01:30:48;2.10;65.60
10911;DHT22;5508;49.150;11.030;2023-03-08T01:33:49;2.10;65.50
10911;DHT22;5508;49.150;11.030;2023-03-08T01:36:49;2.20;64.70
10911;DHT22;5508;49.150;11.030;2023-03-08T01:39:50;2.30;64.60
10911;DHT22;5508;49.150;11.030;2023-03-08T01:42:51;2.30;64.80
10911;DHT22;5508;49.150;11.030;2023-03-08T01:46:17;2.30;64.60
10911;DHT22;5508;49.150;11.030;2023-03-08T01:49:19;2.40;64.10
10911;DHT22;5508;49.150;11.030;2023-03-08T01:52:29;2.40;63.60
10911;DHT22;5508;49.150;11.030;2023-03-08T01:55:31;2.40;64.20
10911;DHT22;5508;49.150;11.030;2023-03-08T01:58:32;2.40;64.20
10911;DHT22;5508;49.150;11.030;2023-03-08T02:01:33;2.30;64.40
10911;DHT22;5508;49.150;11.030;2023-03-08T02:04:34;2.20;65.10
10911;DHT22;5508;49.150;11.030;2023-03-08T02:07:35;2.20;65.20
10911;DHT22;5508;49.150;11.030;2023-03-08T02:10:36;2.20;65.60
10911;DHT22;5508;49.150;11.030;2023-03-08T02:13:37;2.30;64.50
10911;DHT22;5508;49.150;11.030;2023-03-08T02:16:39;2.40;63.90
10911;DHT22;5508;49.150;11.030;2023-03-08T02:22:42;2.40;64.50
10911;DHT22;5508;49.150;11.030;2023-03-08T02:25:51;2.40;64.70
10911;DHT22;5508;49.150;11.030;2023-03-08T02:28:53;2.30;64.80
10911;DHT22;5508;49.150;11.030;2023-03-08T02:31:53;2.30;65.20
10911;DHT22;5508;49.150;11.030;2023-03-08T02:34:54;2.20;65.10
10911;DHT22;5508;49.150;11.030;2023-03-08T02:37:54;2.00;66.40
10911;DHT22;5508;49.150;11.030;2023-03-08T02:40:55;1.80;67.10
10911;DHT22;5508;49.150;11.030;2023-03-08T02:43:56;1.80;66.90
10911;DHT22;5508;49.150;11.030;2023-03-08T02:46:56;1.60;67.90
10911;DHT22;5508;49.150;11.030;2023-03-08T02:49:57;1.50;68.90
10911;DHT22;5508;49.150;11.030;2023-03-08T02:52:58;1.50;69.20
10911;DHT22;5508;49.150;11.030;2023-03-08T02:55:58;1.50;69.40
10911;DHT22;5508;49.150;11.030;2023-03-08T02:58:59;1.50;69.30
10911;DHT22;5508;49.150;11.030;2023-03-08T03:01:59;1.40;69.50
10911;DHT22;5508;49.150;11.030;2023-03-08T03:05:06;1.40;69.50
10911;DHT22;5508;49.150;11.030;2023-03-08T03:08:07;1.30;70.20
10911;DHT22;5508;49.150;11.030;2023-03-08T03:11:12;1.20;70.80
10911;DHT22;5508;49.150;11.030;2023-03-08T03:14:12;1.20;71.70
10911;DHT22;5508;49.150;11.030;2023-03-08T03:17:13;1.10;71.00
10911;DHT22;5508;49.150;11.030;2023-03-08T03:20:14;1.00;71.50
10911;DHT22;5508;49.150;11.030;2023-03-08T03:23:15;1.10;71.50
10911;DHT22;5508;49.150;11.030;2023-03-08T03:26:18;1.10;71.60
10911;DHT22;5508;49.150;11.030;2023-03-08T03:29:19;1.10;71.30
10911;DHT22;5508;49.150;11.030;2023-03-08T03:32:19;1.00;72.00
10911;DHT22;5508;49.150;11.030;2023-03-08T03:35:20;1.10;71.70
10911;DHT22;5508;49.150;11.030;2023-03-08T03:38:20;0.90;72.50
10911;DHT22;5508;49.150;11.030;2023-03-08T03:41:22;0.80;72.50
10911;DHT22;5508;49.150;11.030;2023-03-08T03:44:23;0.80;73.80
10911;DHT22;5508;49.150;11.030;2023-03-08T03:47:23;0.80;73.50
10911;DHT22;5508;49.150;11.030;2023-03-08T03:50:24;1.00;73.20
10911;DHT22;5508;49.150;11.030;2023-03-08T03:53:27;0.90;73.10
10911;DHT22;5508;49.150;11.030;2023-03-08T03:56:28;1.00;72.40
10911;DHT22;5508;49.150;11.030;2023-03-08T03:59:29;0.90;72.80
10911;DHT22;5508;49.150;11.030;2023-03-08T04:02:29;0.90;73.00
10911;DHT22;5508;49.150;11.030;2023-03-08T04:05:30;0.80;73.60
10911;DHT22;5508;49.150;11.030;2023-03-08T04:08:30;1.00;73.50
10911;DHT22;5508;49.150;11.030;2023-03-08T04:11:34;0.90;73.40
10911;DHT22;5508;49.150;11.030;2023-03-08T04:14:35;0.80;74.60
10911;DHT22;5508;49.150;11.030;2023-03-08T04:17:35;0.70;75.10
10911;DHT22;5508;49.150;11.030;2023-03-08T04:20:36;0.80;74.00
10911;DHT22;5508;49.150;11.030;2023-03-08T04:23:37;0.80;73.80
10911;DHT22;5508;49.150;11.030;2023-03-08T04:26:38;0.80;73.30
10911;DHT22;5508;49.150;11.030;2023-03-08T04:29:38;0.90;73.30
10911;DHT22;5508;49.150;11.030;2023-03-08T04:32:39;0.80;73.30
10911;DHT22;5508;49.150;11.030;2023-03-08T04:35:39;0.80;73.50
10911;DHT22;5508;49.150;11.030;2023-03-08T04:38:40;0.70;74.40
10911;DHT22;5508;49.150;11.030;2023-03-08T04:41:40;0.90;73.10
10911;DHT22;5508;49.150;11.030;2023-03-08T04:44:41;0.80;73.80
10911;DHT22;5508;49.150;11.030;2023-03-08T04:47:42;0.80;73.10
10911;DHT22;5508;49.150;11.030;2023-03-08T04:50:42;0.80;73.40
10911;DHT22;5508;49.150;11.030;2023-03-08T04:53:43;0.80;73.60
10911;DHT22;5508;49.150;11.030;2023-03-08T04:56:44;0.70;74.00
10911;DHT22;5508;49.150;11.030;2023-03-08T04:59:45;0.60;74.40
10911;DHT22;5508;49.150;11.030;2023-03-08T05:02:45;0.60;74.90
10911;DHT22;5508;49.150;11.030;2023-03-08T05:05:54;0.60;75.10
10911;DHT22;5508;49.150;11.030;2023-03-08T05:08:54;0.60;74.40
10911;DHT22;5508;49.150;11.030;2023-03-08T05:11:55;0.60;74.90
10911;DHT22;5508;49.150;11.030;2023-03-08T05:14:57;0.60;74.20
10911;DHT22;5508;49.150;11.030;2023-03-08T05:17:58;0.70;73.50
10911;DHT22;5508;49.150;11.030;2023-03-08T05:21:01;0.60;73.70
10911;DHT22;5508;49.150;11.030;2023-03-08T05:24:02;0.60;74.00
10911;DHT22;5508;49.150;11.030;2023-03-08T05:27:02;0.70;73.70
10911;DHT22;5508;49.150;11.030;2023-03-08T05:30:04;0.80;74.00
10911;DHT22;5508;49.150;11.030;2023-03-08T05:33:05;0.80;73.50
10911;DHT22;5508;49.150;11.030;2023-03-08T05:36:06;0.90;73.40
10911;DHT22;5508;49.150;11.030;2023-03-08T05:39:07;0.80;73.40
10911;DHT22;5508;49.150;11.030;2023-03-08T05:42:09;0.80;73.80
10911;DHT22;5508;49.150;11.030;2023-03-08T05:45:12;0.70;74.80
10911;DHT22;5508;49.150;11.030;2023-03-08T05:48:12;0.70;74.70
10911;DHT22;5508;49.150;11.030;2023-03-08T05:51:15;0.80;74.10
10911;DHT22;5508;49.150;11.030;2023-03-08T05:54:16;0.90;74.20
10911;DHT22;5508;49.150;11.030;2023-03-08T05:57:17;0.80;74.00
10911;DHT22;5508;49.150;11.030;2023-03-08T06:00:17;0.80;74.00
10911;DHT22;5508;49.150;11.030;2023-03-08T06:03:18;0.90;74.20
10911;DHT22;5508;49.150;11.030;2023-03-08T06:06:21;1.00;74.20
10911;DHT22;5508;49.150;11.030;2023-03-08T06:09:21;0.90;73.90
10911;DHT22;5508;49.150;11.030;2023-03-08T06:12:22;1.00;73.50
10911;DHT22;5508;49.150;11.030;2023-03-08T06:15:23;1.00;73.70
10911;DHT22;5508;49.150;11.030;2023-03-08T06:18:23;1.00;74.70
10911;DHT22;5508;49.150;11.030;2023-03-08T06:21:24;1.10;73.50
10911;DHT22;5508;49.150;11.030;2023-03-08T06:24:25;1.10;73.80
10911;DHT22;5508;49.150;11.030;2023-03-08T06:27:25;1.10;74.20
10911;DHT22;5508;49.150;11.030;2023-03-08T06:30:26;1.10;73.70
10911;DHT22;5508;49.150;11.030;2023-03-08T06:33:29;1.10;75.20
10911;DHT22;5508;49.150;11.030;2023-03-08T06:36:30;1.10;74.60
10911;DHT22;5508;49.150;11.030;2023-03-08T06:39:31;1.20;74.80
10911;DHT22;5508;49.150;11.030;2023-03-08T06:42:32;1.20;74.70
10911;DHT22;5508;49.150;11.030;2023-03-08T06:45:32;1.20;74.80
10911;DHT22;5508;49.150;11.030;2023-03-08T06:48:34;1.30;74.10
10911;DHT22;5508;49.150;11.030;2023-03-08T06:51:35;1.40;73.70
10911;DHT22;5508;49.150;11.030;2023-03-08T06:54:35;1.50;73.00
10911;DHT22;5508;49.150;11.030;2023-03-08T06:57:36;1.50;73.30
10911;DHT22;5508;49.150;11.030;2023-03-08T07:00:36;1.50;73.00
10911;DHT22;5508;49.150;11.030;2023-03-08T07:03:37;1.50;73.50
10911;DHT22;5508;49.150;11.030;2023-03-08T07:06:38;1.60;73.40
10911;DHT22;5508;49.150;11.030;2023-03-08T07:09:38;1.70;73.10
10911;DHT22;5508;49.150;11.030;2023-03-08T07:12:40;1.80;73.50
10911;DHT22;5508;49.150;11.030;2023-03-08T07:15:42;1.80;73.90
10911;DHT22;5508;49.150;11.030;2023-03-08T07:18:43;1.90;74.00
10911;DHT22;5508;49.150;11.030;2023-03-08T07:21:44;1.90;73.90
10911;DHT22;5508;49.150;11.030;2023-03-08T07:24:46;1.80;73.70
10911;DHT22;5508;49.150;11.030;2023-03-08T07:27:47;1.90;73.80
10911;DHT22;5508;49.150;11.030;2023-03-08T07:30:50;2.00;73.20
10911;DHT22;5508;49.150;11.030;2023-03-08T07:33:51;2.10;73.50
10911;DHT22;5508;49.150;11.030;2023-03-08T07:36:51;2.20;73.10
10911;DHT22;5508;49.150;11.030;2023-03-08T07:39:52;2.30;71.10
10911;DHT22;5508;49.150;11.030;2023-03-08T07:42:54;2.50;71.30
10911;DHT22;5508;49.150;11.030;2023-03-08T07:45:58;2.60;70.80
10911;DHT22;5508;49.150;11.030;2023-03-08T07:48:59;2.70;71.70
10911;DHT22;5508;49.150;11.030;2023-03-08T07:52:00;2.90;70.80
10911;DHT22;5508;49.150;11.030;2023-03-08T07:55:01;3.00;70.00
10911;DHT22;5508;49.150;11.030;2023-03-08T07:58:02;3.10;70.20
10911;DHT22;5508;49.150;11.030;2023-03-08T08:01:10;3.00;70.60
10911;DHT22;5508;49.150;11.030;2023-03-08T08:04:11;3.00;71.80
10911;DHT22;5508;49.150;11.030;2023-03-08T08:07:14;3.10;73.10
10911;DHT22;5508;49.150;11.030;2023-03-08T08:10:15;3.00;73.90
10911;DHT22;5508;49.150;11.030;2023-03-08T08:13:16;2.80;76.10
10911;DHT22;5508;49.150;11.030;2023-03-08T08:16:17;2.70;79.50
10911;DHT22;5508;49.150;11.030;2023-03-08T08:19:18;2.50;81.50
10911;DHT22;5508;49.150;11.030;2023-03-08T08:22:18;2.50;84.00
10911;DHT22;5508;49.150;11.030;2023-03-08T08:25:19;2.40;85.60
10911;DHT22;5508;49.150;11.030;2023-03-08T08:28:21;2.30;86.90
10911;DHT22;5508;49.150;11.030;2023-03-08T08:31:24;2.30;87.70
10911;DHT22;5508;49.150;11.030;2023-03-08T08:34:28;2.20;89.80
10911;DHT22;5508;49.150;11.030;2023-03-08T08:37:28;2.10;90.70
10911;DHT22;5508;49.150;11.030;2023-03-08T08:40:30;2.10;91.60
10911;DHT22;5508;49.150;11.030;2023-03-08T08:43:32;2.10;91.80
10911;DHT22;5508;49.150;11.030;2023-03-08T08:46:33;1.90;94.10
10911;DHT22;5508;49.150;11.030;2023-03-08T08:49:34;1.90;95.60
10911;DHT22;5508;49.150;11.030;2023-03-08T08:52:35;2.00;96.70
10911;DHT22;5508;49.150;11.030;2023-03-08T08:55:35;2.00;97.90
10911;DHT22;5508;49.150;11.030;2023-03-08T08:58:36;2.00;98.90
10911;DHT22;5508;49.150;11.030;2023-03-08T09:01:37;1.80;99.40
10911;DHT22;5508;49.150;11.030;2023-03-08T09:04:42;1.70;99.90
10911;DHT22;5508;49.150;11.030;2023-03-08T09:07:43;1.70;99.90
10911;DHT22;5508;49.150;11.030;2023-03-08T09:10:43;1.80;99.90
10911;DHT22;5508;49.150;11.030;2023-03-08T09:13:44;1.70;99.90
10911;DHT22;5508;49.150;11.030;2023-03-08T09:16:45;1.70;99.90
10911;DHT22;5508;49.150;11.030;2023-03-08T09:19:45;1.60;99.90
10911;DHT22;5508;49.150;11.030;2023-03-08T09:22:46;1.70;99.90
10911;DHT22;5508;49.150;11.030;2023-03-08T09:25:57;1.60;99.90
10911;DHT22;5508;49.150;11.030;2023-03-08T09:28:59;1.60;99.90
10911;DHT22;5508;49.150;11.030;2023-03-08T09:32:04;1.70;99.90
10911;DHT22;5508;49.150;11.030;2023-03-08T09:35:05;1.60;99.90
10911;DHT22;5508;49.150;11.030;2023-03-08T09:38:06;1.50;99.90
10911;DHT22;5508;49.150;11.030;2023-03-08T09:47:47;1.70;99.90
10911;DHT22;5508;49.150;11.030;2023-03-08T09:50:54;1.80;99.90
10911;DHT22;5508;49.150;11.030;2023-03-08T09:54:01;1.80;99.90
10911;DHT22;5508;49.150;11.030;2023-03-08T09:57:05;1.80;99.90
10911;DHT22;5508;49.150;11.030;2023-03-08T10:00:28;1.90;99.90
10911;DHT22;5508;49.150;11.030;2023-03-08T10:03:41;2.00;99.90
10911;DHT22;5508;49.150;11.030;2023-03-08T10:13:53;1.90;99.90
10911;DHT22;5508;49.150;11.030;2023-03-08T10:17:08;1.70;99.90
10911;DHT22;5508;49.150;11.030;2023-03-08T10:20:31;1.70;99.90
10911;DHT22;5508;49.150;11.030;2023-03-08T10:23:35;1.70;99.90
10911;DHT22;5508;49.150;11.030;2023-03-08T10:26:37;1.70;99.90
10911;DHT22;5508;49.150;11.030;2023-03-08T10:29:39;2.00;99.90
10911;DHT22;5508;49.150;11.030;2023-03-08T10:32:44;2.30;99.90
10911;DHT22;5508;49.150;11.030;2023-03-08T10:39:09;2.60;99.90
10911;DHT22;5508;49.150;11.030;2023-03-08T10:42:15;2.90;99.90
10911;DHT22;5508;49.150;11.030;2023-03-08T10:45:17;2.90;99.90
10911;DHT22;5508;49.150;11.030;2023-03-08T10:48:21;2.80;99.90
10911;DHT22;5508;49.150;11.030;2023-03-08T10:51:26;2.90;99.90
10911;DHT22;5508;49.150;11.030;2023-03-08T10:54:28;2.80;99.90
10911;DHT22;5508;49.150;11.030;2023-03-08T10:57:28;2.80;99.90
10911;DHT22;5508;49.150;11.030;2023-03-08T11:00:34;2.80;99.90
10911;DHT22;5508;49.150;11.030;2023-03-08T11:03:35;2.70;99.90
10911;DHT22;5508;49.150;11.030;2023-03-08T11:06:35;2.90;99.90
10911;DHT22;5508;49.150;11.030;2023-03-08T11:09:36;2.80;99.90
10911;DHT22;5508;49.150;11.030;2023-03-08T11:12:37;2.80;99.90
10911;DHT22;5508;49.150;11.030;2023-03-08T11:15:41;2.90;99.90
10911;DHT22;5508;49.150;11.030;2023-03-08T11:19:09;2.90;99.90
10911;DHT22;5508;49.150;11.030;2023-03-08T11:42:32;3.10;99.90
10911;DHT22;5508;49.150;11.030;2023-03-08T11:45:54;3.20;99.90
10911;DHT22;5508;49.150;11.030;2023-03-08T12:02:09;3.40;99.90
10911;DHT22;5508;49.150;11.030;2023-03-08T12:05:13;3.50;99.90
10911;DHT22;5508;49.150;11.030;2023-03-08T12:11:23;3.60;99.90
10911;DHT22;5508;49.150;11.030;2023-03-08T12:14:34;3.80;99.90
10911;DHT22;5508;49.150;11.030;2023-03-08T12:17:40;3.90;99.90
10911;DHT22;5508;49.150;11.030;2023-03-08T12:20:44;4.00;99.90
10911;DHT22;5508;49.150;11.030;2023-03-08T12:27:16;4.20;99.90
10911;DHT22;5508;49.150;11.030;2023-03-08T12:33:38;4.50;99.90
10911;DHT22;5508;49.150;11.030;2023-03-08T12:36:41;4.60;99.90
10911;DHT22;5508;49.150;11.030;2023-03-08T12:39:42;4.60;99.90
10911;DHT22;5508;49.150;11.030;2023-03-08T12:43:04;4.50;99.90
10911;DHT22;5508;49.150;11.030;2023-03-08T12:46:08;4.40;99.90
10911;DHT22;5508;49.150;11.030;2023-03-08T12:52:31;4.60;99.90
10911;DHT22;5508;49.150;11.030;2023-03-08T12:55:34;4.80;99.90
10911;DHT22;5508;49.150;11.030;2023-03-08T13:08:33;5.30;99.90
10911;DHT22;5508;49.150;11.030;2023-03-08T13:11:47;5.40;99.90
10911;DHT22;5508;49.150;11.030;2023-03-08T13:15:00;5.70;99.90
10911;DHT22;5508;49.150;11.030;2023-03-08T13:18:10;5.70;99.90
10911;DHT22;5508;49.150;11.030;2023-03-08T13:21:30;5.80;99.90
10911;DHT22;5508;49.150;11.030;2023-03-08T13:24:46;5.80;99.80
10911;DHT22;5508;49.150;11.030;2023-03-08T13:28:00;5.90;99.60
10911;DHT22;5508;49.150;11.030;2023-03-08T13:31:23;5.90;99.30
10911;DHT22;5508;49.150;11.030;2023-03-08T13:34:32;6.10;97.40
10911;DHT22;5508;49.150;11.030;2023-03-08T13:37:32;6.20;97.90
10911;DHT22;5508;49.150;11.030;2023-03-08T13:40:33;6.40;94.90
10911;DHT22;5508;49.150;11.030;2023-03-08T13:43:35;6.30;96.40
10911;DHT22;5508;49.150;11.030;2023-03-08T13:46:36;6.60;95.30
10911;DHT22;5508;49.150;11.030;2023-03-08T13:49:43;6.70;95.10
10911;DHT22;5508;49.150;11.030;2023-03-08T13:52:45;6.70;94.70
10911;DHT22;5508;49.150;11.030;2023-03-08T13:55:47;6.80;95.70
10911;DHT22;5508;49.150;11.030;2023-03-08T13:58:50;6.80;94.30
10911;DHT22;5508;49.150;11.030;2023-03-08T14:01:54;6.90;95.30
10911;DHT22;5508;49.150;11.030;2023-03-08T14:04:56;6.90;95.20
10911;DHT22;5508;49.150;11.030;2023-03-08T14:08:05;7.10;94.20
10911;DHT22;5508;49.150;11.030;2023-03-08T14:11:17;7.00;93.50
10911;DHT22;5508;49.150;11.030;2023-03-08T14:14:27;7.10;93.20
10911;DHT22;5508;49.150;11.030;2023-03-08T14:17:30;7.20;94.30
10911;DHT22;5508;49.150;11.030;2023-03-08T14:20:31;7.30;93.80
10911;DHT22;5508;49.150;11.030;2023-03-08T14:23:56;7.60;92.90
10911;DHT22;5508;49.150;11.030;2023-03-08T14:27:02;7.80;92.80
10911;DHT22;5508;49.150;11.030;2023-03-08T14:36:14;8.20;90.90
10911;DHT22;5508;49.150;11.030;2023-03-08T14:39:17;8.20;91.70
10911;DHT22;5508;49.150;11.030;2023-03-08T14:43:00;8.40;91.30
10911;DHT22;5508;49.150;11.030;2023-03-08T14:46:05;8.80;89.70
10911;DHT22;5508;49.150;11.030;2023-03-08T14:49:19;8.90;87.60
10911;DHT22;5508;49.150;11.030;2023-03-08T14:52:20;8.90;88.40
10911;DHT22;5508;49.150;11.030;2023-03-08T14:55:26;9.00;89.00
10911;DHT22;5508;49.150;11.030;2023-03-08T14:58:29;8.80;88.30
10911;DHT22;5508;49.150;11.030;2023-03-08T15:01:32;8.80;88.30
10911;DHT22;5508;49.150;11.030;2023-03-08T15:04:34;8.90;88.80
10911;DHT22;5508;49.150;11.030;2023-03-08T15:07:35;8.80;89.00
10911;DHT22;5508;49.150;11.030;2023-03-08T15:10:37;8.80;89.00
10911;DHT22;5508;49.150;11.030;2023-03-08T15:13:39;8.80;89.80
10911;DHT22;5508;49.150;11.030;2023-03-08T15:16:40;8.70;90.30
10911;DHT22;5508;49.150;11.030;2023-03-08T15:19:40;8.80;89.40
10911;DHT22;5508;49.150;11.030;2023-03-08T15:22:49;8.70;90.20
10911;DHT22;5508;49.150;11.030;2023-03-08T15:25:51;8.70;89.90
10911;DHT22;5508;49.150;11.030;2023-03-08T15:28:52;8.50;91.70
10911;DHT22;5508;49.150;11.030;2023-03-08T15:31:53;8.50;92.90
10911;DHT22;5508;49.150;11.030;2023-03-08T15:34:54;8.30;94.10
10911;DHT22;5508;49.150;11.030;2023-03-08T15:37:54;8.20;96.90
10911;DHT22;5508;49.150;11.030;2023-03-08T15:40:55;8.10;99.90
10911;DHT22;5508;49.150;11.030;2023-03-08T15:43:55;7.90;99.90
10911;DHT22;5508;49.150;11.030;2023-03-08T15:46:56;7.70;99.90
10911;DHT22;5508;49.150;11.030;2023-03-08T15:49:57;7.50;99.90
10911;DHT22;5508;49.150;11.030;2023-03-08T15:52:57;7.50;99.90
10911;DHT22;5508;49.150;11.030;2023-03-08T15:55:58;7.40;99.90
10911;DHT22;5508;49.150;11.030;2023-03-08T15:58:59;7.40;99.90
10911;DHT22;5508;49.150;11.030;2023-03-08T16:01:59;7.20;99.90
10911;DHT22;5508;49.150;11.030;2023-03-08T16:05:00;7.10;99.90
10911;DHT22;5508;49.150;11.030;2023-03-08T16:08:02;7.00;99.90
10911;DHT22;5508;49.150;11.030;2023-03-08T16:11:07;7.10;99.90
10911;DHT22;5508;49.150;11.030;2023-03-08T16:14:07;7.10;99.90
10911;DHT22;5508;49.150;11.030;2023-03-08T16:17:08;7.10;99.90
10911;DHT22;5508;49.150;11.030;2023-03-08T16:20:09;7.00;99.90
10911;DHT22;5508;49.150;11.030;2023-03-08T16:23:10;7.00;99.90
10911;DHT22;5508;49.150;11.030;2023-03-08T16:26:14;7.10;99.90
10911;DHT22;5508;49.150;11.030;2023-03-08T16:29:15;7.00;99.90
10911;DHT22;5508;49.150;11.030;2023-03-08T16:32:15;7.00;99.90
10911;DHT22;5508;49.150;11.030;2023-03-08T16:35:17;7.00;99.90
10911;DHT22;5508;49.150;11.030;2023-03-08T16:38:18;7.10;99.90
10911;DHT22;5508;49.150;11.030;2023-03-08T16:41:19;7.00;99.90
10911;DHT22;5508;49.150;11.030;2023-03-08T16:44:26;7.00;99.90
10911;DHT22;5508;49.150;11.030;2023-03-08T16:47:27;7.00;99.90
10911;DHT22;5508;49.150;11.030;2023-03-08T16:50:31;7.10;99.90
10911;DHT22;5508;49.150;11.030;2023-03-08T16:53:32;7.10;99.90
10911;DHT22;5508;49.150;11.030;2023-03-08T16:56:32;7.10;99.90
10911;DHT22;5508;49.150;11.030;2023-03-08T16:59:33;7.00;99.90
10911;DHT22;5508;49.150;11.030;2023-03-08T17:02:34;7.00;99.90
10911;DHT22;5508;49.150;11.030;2023-03-08T17:05:38;7.00;99.90
10911;DHT22;5508;49.150;11.030;2023-03-08T17:08:39;7.00;99.90
10911;DHT22;5508;49.150;11.030;2023-03-08T17:11:41;7.10;99.90
10911;DHT22;5508;49.150;11.030;2023-03-08T17:14:42;7.20;99.90
10911;DHT22;5508;49.150;11.030;2023-03-08T17:17:43;7.30;99.90
10911;DHT22;5508;49.150;11.030;2023-03-08T17:20:44;7.40;99.90
10911;DHT22;5508;49.150;11.030;2023-03-08T17:23:45;7.40;99.90
10911;DHT22;5508;49.150;11.030;2023-03-08T17:26:47;7.40;99.90
10911;DHT22;5508;49.150;11.030;2023-03-08T17:29:49;7.40;99.90
10911;DHT22;5508;49.150;11.030;2023-03-08T17:32:50;7.20;99.90
10911;DHT22;5508;49.150;11.030;2023-03-08T17:35:55;7.10;99.90
10911;DHT22;5508;49.150;11.030;2023-03-08T17:38:56;7.20;99.90
10911;DHT22;5508;49.150;11.030;2023-03-08T17:41:56;7.30;99.90
10911;DHT22;5508;49.150;11.030;2023-03-08T17:44:57;7.30;99.90
10911;DHT22;5508;49.150;11.030;2023-03-08T17:47:58;7.30;99.90
10911;DHT22;5508;49.150;11.030;2023-03-08T17:51:07;7.30;99.90
10911;DHT22;5508;49.150;11.030;2023-03-08T17:54:07;7.30;99.90
10911;DHT22;5508;49.150;11.030;2023-03-08T17:57:08;7.20;99.90
10911;DHT22;5508;49.150;11.030;2023-03-08T18:00:09;7.10;99.90
10911;DHT22;5508;49.150;11.030;2023-03-08T18:03:11;7.10;99.90
10911;DHT22;5508;49.150;11.030;2023-03-08T18:06:28;7.00;99.90
10911;DHT22;5508;49.150;11.030;2023-03-08T18:09:29;6.90;99.90
10911;DHT22;5508;49.150;11.030;2023-03-08T18:12:31;7.00;99.90
10911;DHT22;5508;49.150;11.030;2023-03-08T18:15:32;7.10;99.90
10911;DHT22;5508;49.150;11.030;2023-03-08T18:18:32;6.90;99.90
10911;DHT22;5508;49.150;11.030;2023-03-08T18:21:34;6.80;99.90
10911;DHT22;5508;49.150;11.030;2023-03-08T18:24:35;6.70;99.90
10911;DHT22;5508;49.150;11.030;2023-03-08T18:27:36;6.70;99.90
10911;DHT22;5508;49.150;11.030;2023-03-08T18:30:38;6.60;99.90
10911;DHT22;5508;49.150;11.030;2023-03-08T18:33:39;6.50;99.90
10911;DHT22;5508;49.150;11.030;2023-03-08T18:36:40;6.60;99.90
10911;DHT22;5508;49.150;11.030;2023-03-08T18:39:41;6.60;99.90
10911;DHT22;5508;49.150;11.030;2023-03-08T18:42:42;6.70;99.90
10911;DHT22;5508;49.150;11.030;2023-03-08T18:45:50;6.80;99.90
10911;DHT22;5508;49.150;11.030;2023-03-08T18:48:51;7.00;99.90
10911;DHT22;5508;49.150;11.030;2023-03-08T18:51:53;7.00;99.90
10911;DHT22;5508;49.150;11.030;2023-03-08T18:54:53;7.20;99.90
10911;DHT22;5508;49.150;11.030;2023-03-08T18:57:54;7.30;99.90
10911;DHT22;5508;49.150;11.030;2023-03-08T19:00:55;7.30;99.90
10911;DHT22;5508;49.150;11.030;2023-03-08T19:03:59;7.30;99.90
10911;DHT22;5508;49.150;11.030;2023-03-08T19:07:00;7.30;99.90
10911;DHT22;5508;49.150;11.030;2023-03-08T19:10:00;7.20;99.90
10911;DHT22;5508;49.150;11.030;2023-03-08T19:13:02;7.30;99.90
10911;DHT22;5508;49.150;11.030;2023-03-08T19:16:04;7.30;99.90
10911;DHT22;5508;49.150;11.030;2023-03-08T19:19:08;7.40;99.90
10911;DHT22;5508;49.150;11.030;2023-03-08T19:22:09;7.40;99.90
10911;DHT22;5508;49.150;11.030;2023-03-08T19:25:11;7.40;99.90
10911;DHT22;5508;49.150;11.030;2023-03-08T19:28:13;7.40;99.90
10911;DHT22;5508;49.150;11.030;2023-03-08T19:31:16;7.50;99.90
10911;DHT22;5508;49.150;11.030;2023-03-08T19:34:19;7.50;99.90
10911;DHT22;5508;49.150;11.030;2023-03-08T19:37:20;7.50;99.90
10911;DHT22;5508;49.150;11.030;2023-03-08T19:40:27;7.50;99.90
10911;DHT22;5508;49.150;11.030;2023-03-08T19:43:35;7.50;99.90
10911;DHT22;5508;49.150;11.030;2023-03-08T19:46:37;7.50;99.90
10911;DHT22;5508;49.150;11.030;2023-03-08T19:49:43;7.50;99.90
10911;DHT22;5508;49.150;11.030;2023-03-08T19:52:50;7.50;99.90
10911;DHT22;5508;49.150;11.030;2023-03-08T19:55:52;7.60;99.90
10911;DHT22;5508;49.150;11.030;2023-03-08T19:58:53;7.50;99.90
10911;DHT22;5508;49.150;11.030;2023-03-08T20:02:11;7.50;99.90
10911;DHT22;5508;49.150;11.030;2023-03-08T20:05:11;7.60;99.90
10911;DHT22;5508;49.150;11.030;2023-03-08T20:08:12;7.60;99.90
10911;DHT22;5508;49.150;11.030;2023-03-08T20:11:13;7.60;99.90
10911;DHT22;5508;49.150;11.030;2023-03-08T20:14:14;7.50;99.90
10911;DHT22;5508;49.150;11.030;2023-03-08T20:17:14;7.60;99.90
10911;DHT22;5508;49.150;11.030;2023-03-08T20:20:15;7.50;99.90
10911;DHT22;5508;49.150;11.030;2023-03-08T20:23:16;7.60;99.90
10911;DHT22;5508;49.150;11.030;2023-03-08T20:26:17;7.60;99.90
10911;DHT22;5508;49.150;11.030;2023-03-08T20:29:17;7.60;99.90
10911;DHT22;5508;49.150;11.030;2023-03-08T20:32:18;7.60;99.90
10911;DHT22;5508;49.150;11.030;2023-03-08T20:35:19;7.60;99.90
10911;DHT22;5508;49.150;11.030;2023-03-08T20:38:22;7.60;99.90
10911;DHT22;5508;49.150;11.030;2023-03-08T20:41:23;7.70;99.90
10911;DHT22;5508;49.150;11.030;2023-03-08T20:44:24;7.60;99.90
10911;DHT22;5508;49.150;11.030;2023-03-08T20:47:25;7.70;99.90
10911;DHT22;5508;49.150;11.030;2023-03-08T20:50:26;7.70;99.90
10911;DHT22;5508;49.150;11.030;2023-03-08T20:53:28;7.60;99.90